SLSB/SRJ METAR and TAF weather

Enter ICAO airport designator
Station Type Date Time Source
SLSB METAR 2021/09/16 15:00 UTC NOAA

SLSB 161500Z 12005KT 9999 SCT080 26/18 Q1019


Station Type Date Time Source
SLSB Decoded METAR 2021/09/16 15:00 UTC NOAA

San Borja, Bolivia (SLSB) 14-52S 066-52W
Sep 16, 2021 - 11:00 AM EDT / 2021.09.16 1500 UTC
Wind: from the ESE (120 degrees) at 6 MPH (5 KT):0
Visibility: greater than 7 mile(s):0
Sky conditions: partly cloudy
Temperature: 78 F (26 C)
Dew Point: 64 F (18 C)
Relative Humidity: 61%
Pressure (altimeter): 30.09 in. Hg (1019 hPa)
ob: SLSB 161500Z 12005KT 9999 SCT080 26/18 Q1019
cycle: 15

Station Type Date Time Source
SLSB TAF UTC NOAA

Error!

Example: see airport list